Lady Eman — 5IM513 — position and weather

sailwx.info

Track history (hours):
 
Tides and Currents Weather Stations Pressure Air Temp Water Temp Dewpoint Dewpoint Depression Visibility Wind Speed Wind Dir Waves Ship Positions

Lady Eman

Last reported at 2015-Aug-28 18:31 UTC. Time now 2015-Aug-30 18:07 UTC.
Position N 31°23' E 030°04'.

Length 92 m; draft 7.4 m.

Type: Cargo ship. MMSI: 677041300.

Date/timePositionNaut miles runAvg speedWind from/ knotsBaromVisibWave heightAir tempDewpointWater temp
2015-Aug-28 18:31N 31°23' E 030°04'0 0.0
2015-Aug-27 18:07N 31°23' E 030°04'  
2015-Aug-23 21:08N 34°14' E 032°40'5 5.5
2015-Aug-23 20:15N 34°18' E 032°44'4 5.4
2015-Aug-23 19:33N 34°20' E 032°48'5 5.3
2015-Aug-23 18:33N 34°24' E 032°52'5 5.4
2015-Aug-23 17:33N 34°27' E 032°57'5 5.3
2015-Aug-23 16:33N 34°31' E 033°02'6 5.6
2015-Aug-23 15:33N 34°36' E 033°04'3 0.7
2015-Aug-23 10:33N 34°40' E 033°03'2 2.4
2015-Aug-23 09:33N 34°40' E 033°06'7 6.5
2015-Aug-23 08:33N 34°39' E 033°14'7 6.7
2015-Aug-23 07:30N 34°39' E 033°23'  
Track history (hours):
 
Tides and Currents Weather Stations Pressure Air Temp Water Temp Dewpoint Dewpoint Depression Visibility Wind Speed Wind Dir Waves Ship Positions

Lady Eman

Last reported at 2015-Aug-28 18:31 UTC. Time now 2015-Aug-30 18:07 UTC.
Position N 31°23' E 030°04'.

Length 92 m; draft 7.4 m.

Type: Cargo ship. MMSI: 677041300.

Date/timePositionNaut miles runAvg speedWind from/ knotsBaromVisibWave heightAir tempDewpointWater temp
2015-Aug-28 18:31N 31°23' E 030°04'0 0.0
2015-Aug-27 18:07N 31°23' E 030°04'  
2015-Aug-23 21:08N 34°14' E 032°40'5 5.5
2015-Aug-23 20:15N 34°18' E 032°44'4 5.4
2015-Aug-23 19:33N 34°20' E 032°48'5 5.3
2015-Aug-23 18:33N 34°24' E 032°52'5 5.4
2015-Aug-23 17:33N 34°27' E 032°57'5 5.3
2015-Aug-23 16:33N 34°31' E 033°02'6 5.6
2015-Aug-23 15:33N 34°36' E 033°04'3 0.7
2015-Aug-23 10:33N 34°40' E 033°03'2 2.4
2015-Aug-23 09:33N 34°40' E 033°06'7 6.5
2015-Aug-23 08:33N 34°39' E 033°14'7 6.7
2015-Aug-23 07:30N 34°39' E 033°23'  

Dump ship's entire track history